Terminal Aerodrome Forecast
Issued by NWS

Home | Current Version | Previous Version | Text Only | Print | Product List | Glossary On
Versions: 1 2 3 4 5 6 7 8 9 10 11 12 13 14
000
FTUS45 KRIW 201121
TAFWRL
TAF
KWRL 201121Z 2012/2112 33009KT P6SM BKN120
     FM201400 33012G20KT P6SM OVC090
     FM202100 35010KT P6SM VCSH OVC050
     FM210900 VRB05KT P6SM SCT080=

USA.gov is the U.S. government's official web portal to all federal, state and local government web resources and services.